createdAt,value
2019-05-10T00:00:15.552Z,5.65
2019-05-10T00:03:02.595Z,5.53
2019-05-10T00:05:49.931Z,6.15
2019-05-10T00:08:36.572Z,5.42
2019-05-10T00:11:34.539Z,5.47
2019-05-10T00:14:18.291Z,5.40
2019-05-10T00:16:48.237Z,4.85
2019-05-10T00:19:16.998Z,14.53
2019-05-10T00:21:45.759Z,17.75
2019-05-10T00:24:14.434Z,18.57
2019-05-10T00:26:43.122Z,18.87
2019-05-10T00:29:12.054Z,18.42
2019-05-10T00:31:40.961Z,18.32
2019-05-10T00:34:09.977Z,18.95
2019-05-10T00:36:38.701Z,17.40
2019-05-10T00:39:07.726Z,18.80
2019-05-10T00:41:36.418Z,21.33
2019-05-10T00:44:05.255Z,20.15
2019-05-10T00:46:33.952Z,21.87
2019-05-10T00:49:02.624Z,20.65
2019-05-10T00:51:31.290Z,24.50
2019-05-10T00:53:59.976Z,24.75
2019-05-10T00:56:28.689Z,24.23
2019-05-10T00:58:57.371Z,25.65
2019-05-10T01:01:26.029Z,23.57
2019-05-10T01:03:54.759Z,24.18
2019-05-10T01:06:23.457Z,25.10
2019-05-10T01:08:52.161Z,25.20
2019-05-10T01:11:20.838Z,24.20
2019-05-10T01:13:49.513Z,26.75
2019-05-10T01:16:18.599Z,25.97
2019-05-10T01:18:47.275Z,25.15
2019-05-10T01:21:15.968Z,24.15
2019-05-10T01:23:44.659Z,27.20
2019-05-10T01:26:13.393Z,26.93
2019-05-10T01:28:42.065Z,27.70
2019-05-10T01:31:10.753Z,26.45
2019-05-10T01:33:39.487Z,25.80
2019-05-10T01:36:08.158Z,25.43
2019-05-10T01:38:36.845Z,27.15
2019-05-10T01:41:05.496Z,26.15
2019-05-10T01:43:34.161Z,29.18
2019-05-10T01:46:02.928Z,30.45
2019-05-10T01:48:31.611Z,31.33
2019-05-10T01:51:00.270Z,31.52
2019-05-10T01:53:28.941Z,30.65
2019-05-10T01:55:57.594Z,33.55
2019-05-10T01:58:26.259Z,35.13
2019-05-10T02:00:55.024Z,36.03
2019-05-10T02:03:23.688Z,38.30
2019-05-10T02:05:52.348Z,38.95
2019-05-10T02:08:21.044Z,38.25
2019-05-10T02:10:49.696Z,37.05
2019-05-10T02:13:18.353Z,38.63
2019-05-10T02:15:47.035Z,42.10
2019-05-10T02:18:15.839Z,38.95
2019-05-10T02:20:44.499Z,37.03
2019-05-10T02:23:13.199Z,37.55
2019-05-10T02:25:41.856Z,36.50
2019-05-10T02:28:10.598Z,35.00
2019-05-10T02:30:39.288Z,35.73
2019-05-10T02:33:07.941Z,30.50
2019-05-10T02:35:36.627Z,30.50
2019-05-10T02:38:05.296Z,30.62
2019-05-10T02:40:33.961Z,31.17
2019-05-10T02:43:02.637Z,29.12
2019-05-10T02:45:31.357Z,27.42
2019-05-10T02:48:00.013Z,29.45
2019-05-10T02:50:28.706Z,27.95
2019-05-10T02:52:57.382Z,30.37
2019-05-10T02:55:26.607Z,30.20
2019-05-10T02:57:55.612Z,26.68
2019-05-10T03:00:25.550Z,25.95
2019-05-10T03:02:56.095Z,27.22
2019-05-10T03:05:28.441Z,26.05
2019-05-10T03:07:58.837Z,27.03
2019-05-10T03:10:31.531Z,26.45
2019-05-10T03:13:01.444Z,25.80
2019-05-10T03:15:37.320Z,24.82
2019-05-10T03:18:07.127Z,23.57
2019-05-10T03:20:38.446Z,23.92
2019-05-10T03:23:10.460Z,21.80
2019-05-10T03:25:39.191Z,21.70
2019-05-10T03:28:07.857Z,23.85
2019-05-10T03:30:36.609Z,21.12
2019-05-10T03:33:05.297Z,21.55
2019-05-10T03:35:34.253Z,21.02
2019-05-10T03:38:02.916Z,22.22
2019-05-10T03:40:32.656Z,21.42
2019-05-10T03:43:01.310Z,19.65
2019-05-10T03:45:29.987Z,20.50
2019-05-10T03:47:58.639Z,21.12
2019-05-10T03:50:27.325Z,21.42
2019-05-10T03:52:55.978Z,20.40
2019-05-10T03:55:24.639Z,24.23
2019-05-10T03:57:53.321Z,23.27
2019-05-10T04:00:23.618Z,23.32
2019-05-10T04:02:52.275Z,24.02
2019-05-10T04:05:20.949Z,25.02
2019-05-10T04:07:49.604Z,23.65
2019-05-10T04:10:20.941Z,24.60
2019-05-10T04:12:48.846Z,23.10
2019-05-10T04:15:17.594Z,23.42
2019-05-10T04:17:50.176Z,23.67
2019-05-10T04:20:16.795Z,19.85
2019-05-10T04:22:45.508Z,19.60
2019-05-10T04:25:14.345Z,18.80
2019-05-10T04:27:43.006Z,19.77
2019-05-10T04:30:12.248Z,19.42
2019-05-10T04:32:40.899Z,20.97
2019-05-10T04:35:09.689Z,19.25
2019-05-10T04:37:38.340Z,18.85
2019-05-10T04:40:07.558Z,18.85
2019-05-10T04:42:36.243Z,20.25
2019-05-10T04:45:05.613Z,19.55
2019-05-10T04:47:34.262Z,18.82
2019-05-10T04:50:02.971Z,18.67
2019-05-10T04:52:31.657Z,18.52
2019-05-10T04:55:00.342Z,18.15
2019-05-10T04:57:29.009Z,19.17
2019-05-10T04:59:57.688Z,18.90
2019-05-10T05:02:26.383Z,18.60
2019-05-10T05:04:55.056Z,19.25
2019-05-10T05:07:23.722Z,18.27
2019-05-10T05:09:52.402Z,17.77
2019-05-10T05:12:21.068Z,18.77
2019-05-10T05:14:49.749Z,19.92
2019-05-10T05:17:18.405Z,20.57
2019-05-10T05:19:47.107Z,19.87
2019-05-10T05:22:15.812Z,19.35
2019-05-10T05:24:44.512Z,19.10
2019-05-10T05:27:13.181Z,19.67
2019-05-10T05:29:41.850Z,18.92
2019-05-10T05:32:13.336Z,17.32
2019-05-10T05:34:40.941Z,19.75
2019-05-10T05:37:09.600Z,18.70
2019-05-10T05:39:38.334Z,21.30
2019-05-10T05:42:06.967Z,19.55
2019-05-10T05:44:35.633Z,21.35
2019-05-10T05:47:04.969Z,19.27
2019-05-10T05:49:33.895Z,16.77
2019-05-10T05:52:02.552Z,18.48
2019-05-10T05:54:31.245Z,19.07
2019-05-10T05:56:59.911Z,20.68
2019-05-10T05:59:28.576Z,19.10
2019-05-10T06:02:00.589Z,19.25
2019-05-10T06:04:27.657Z,18.27
2019-05-10T06:06:59.249Z,17.73
2019-05-10T06:09:31.877Z,17.65
2019-05-10T06:11:57.150Z,16.60
2019-05-10T06:14:25.843Z,19.50
2019-05-10T06:16:54.516Z,18.85
2019-05-10T06:19:29.414Z,17.23
2019-05-10T06:21:58.132Z,18.48
2019-05-10T06:24:24.016Z,19.52
2019-05-10T06:26:52.720Z,20.08
2019-05-10T06:29:21.388Z,18.65
2019-05-10T06:31:50.066Z,18.35
2019-05-10T06:34:18.730Z,19.90
2019-05-10T06:36:47.419Z,20.37
2019-05-10T06:39:16.102Z,19.42
2019-05-10T06:41:49.949Z,21.48
2019-05-10T06:44:15.164Z,19.25
2019-05-10T06:46:43.830Z,19.07
2019-05-10T06:49:12.523Z,20.37
2019-05-10T06:51:42.812Z,18.40
2019-05-10T06:54:11.622Z,18.80
2019-05-10T06:56:40.302Z,17.90
2019-05-10T06:59:13.339Z,18.57
2019-05-10T07:01:45.874Z,18.30
2019-05-10T07:04:09.769Z,18.70
2019-05-10T07:06:38.433Z,18.37
2019-05-10T07:09:07.578Z,18.87
2019-05-10T07:11:36.248Z,20.43
2019-05-10T07:14:05.002Z,17.42
2019-05-10T07:16:34.105Z,19.27
2019-05-10T07:19:02.779Z,20.72
2019-05-10T07:21:31.479Z,19.20
2019-05-10T07:24:00.182Z,21.55
2019-05-10T07:26:28.845Z,22.02
2019-05-10T07:28:59.250Z,20.90
2019-05-10T07:31:27.919Z,17.80
2019-05-10T07:33:56.595Z,19.70
2019-05-10T07:36:27.258Z,20.43
2019-05-10T07:38:55.818Z,22.20
2019-05-10T07:41:26.648Z,21.73
2019-05-10T07:44:00.396Z,21.70
2019-05-10T07:46:25.279Z,23.70
2019-05-10T07:48:54.102Z,22.65
2019-05-10T07:51:28.306Z,22.73
2019-05-10T07:53:57.092Z,21.97
2019-05-10T07:56:23.534Z,22.67
2019-05-10T07:58:52.192Z,22.62
2019-05-10T08:01:30.783Z,21.80
2019-05-10T08:03:52.526Z,22.93
2019-05-10T08:06:21.317Z,21.95
2019-05-10T08:08:49.973Z,23.50
2019-05-10T08:11:19.165Z,20.75
2019-05-10T08:13:48.610Z,21.85
2019-05-10T08:16:22.743Z,22.55
2019-05-10T08:18:49.735Z,26.37
2019-05-10T08:21:22.139Z,24.55
2019-05-10T08:23:48.754Z,26.23
2019-05-10T08:26:21.969Z,24.80
2019-05-10T08:28:47.895Z,23.52
2019-05-10T08:31:16.640Z,24.18
2019-05-10T08:33:56.179Z,23.83
2019-05-10T08:36:15.696Z,24.65
2019-05-10T08:38:50.036Z,24.67
2019-05-10T08:41:18.372Z,18.42
2019-05-10T08:43:45.505Z,19.32
2019-05-10T08:46:19.479Z,20.05
2019-05-10T08:48:50.332Z,25.02
2019-05-10T08:51:15.751Z,18.12
2019-05-10T08:53:47.105Z,18.05
2019-05-10T08:56:20.904Z,16.60
2019-05-10T08:58:45.238Z,18.55
2019-05-10T09:01:25.844Z,13.70
2019-05-10T09:03:47.141Z,12.35
2019-05-10T09:06:16.986Z,13.62
2019-05-10T09:08:45.153Z,13.05
2019-05-10T09:11:16.231Z,11.68
2019-05-10T09:13:46.204Z,13.32
2019-05-10T09:16:14.642Z,14.05
2019-05-10T09:18:50.309Z,13.20
2019-05-10T09:21:14.478Z,11.05
2019-05-10T09:23:43.348Z,9.70
2019-05-10T09:26:16.472Z,9.10
2019-05-10T09:28:42.404Z,8.68
2019-05-10T09:31:18.701Z,8.58
2019-05-10T09:33:49.293Z,7.70
2019-05-10T09:36:12.487Z,8.03
2019-05-10T09:38:43.534Z,6.55
2019-05-10T09:41:11.989Z,7.60
2019-05-10T09:43:48.336Z,8.38
2019-05-10T09:46:11.488Z,8.60
2019-05-10T09:48:44.721Z,8.68
2019-05-10T09:51:13.676Z,8.50
2019-05-10T09:53:42.637Z,6.97
2019-05-10T09:56:11.291Z,7.85
2019-05-10T09:58:40.002Z,6.78
2019-05-10T10:01:17.713Z,7.05
2019-05-10T10:03:43.308Z,8.45
2019-05-10T10:06:11.364Z,7.47
2019-05-10T10:08:43.406Z,8.65
2019-05-10T10:11:15.684Z,6.85
2019-05-10T10:13:43.926Z,5.97
2019-05-10T10:16:14.666Z,6.28
2019-05-10T10:18:41.852Z,6.17
2019-05-10T10:21:13.133Z,7.33
2019-05-10T10:23:40.999Z,6.20
2019-05-10T10:26:12.572Z,5.50
2019-05-10T10:28:40.028Z,5.30
2019-05-10T10:31:08.786Z,5.08
2019-05-10T10:33:38.025Z,5.37
2019-05-10T10:36:10.001Z,4.85
2019-05-10T10:38:45.274Z,4.17
2019-05-10T10:41:08.245Z,3.47
2019-05-10T10:43:37.399Z,4.62
2019-05-10T10:46:12.102Z,3.58
2019-05-10T10:48:37.071Z,3.35
2019-05-10T10:51:08.093Z,3.52
2019-05-10T10:53:36.315Z,3.50
2019-05-10T10:56:07.472Z,2.90
2019-05-10T10:58:35.519Z,3.15
2019-05-10T11:01:10.863Z,3.75
2019-05-10T11:03:34.681Z,3.55
2019-05-10T11:06:03.365Z,3.98
2019-05-10T11:08:33.230Z,3.60
2019-05-10T11:11:02.846Z,3.67
2019-05-10T11:13:57.549Z,4.10
2019-05-10T11:16:09.700Z,3.92
2019-05-10T11:18:32.366Z,5.55
2019-05-10T11:21:01.965Z,4.58
2019-05-10T11:23:38.654Z,5.17
2019-05-10T11:26:01.520Z,4.70
2019-05-10T11:28:38.770Z,5.35
2019-05-10T11:31:01.169Z,4.25
2019-05-10T11:33:33.345Z,4.50
2019-05-10T11:36:03.948Z,4.35
2019-05-10T11:38:31.726Z,4.90
2019-05-10T11:41:01.972Z,5.78
2019-05-10T11:43:31.417Z,4.15
2019-05-10T11:46:00.248Z,3.98
2019-05-10T11:48:36.914Z,4.20
2019-05-10T11:50:59.319Z,4.50
2019-05-10T11:53:27.975Z,3.92
2019-05-10T11:55:56.633Z,4.12
2019-05-10T11:58:25.344Z,4.37
2019-05-10T12:00:59.355Z,3.80
2019-05-10T12:03:24.423Z,4.00
2019-05-10T12:06:04.555Z,3.90
2019-05-10T12:08:23.547Z,4.08
2019-05-10T12:10:56.632Z,4.87
2019-05-10T12:13:24.953Z,4.58
2019-05-10T12:15:53.066Z,4.95
2019-05-10T12:18:26.969Z,4.45
2019-05-10T12:21:08.049Z,4.25
2019-05-10T12:23:30.145Z,4.42
2019-05-10T12:26:59.195Z,4.65
2019-05-10T12:28:28.560Z,3.70
2019-05-10T12:30:53.745Z,3.72
2019-05-10T12:33:25.783Z,3.95
2019-05-10T12:35:52.913Z,3.50
2019-05-10T12:38:23.582Z,4.80
2019-05-10T12:40:52.009Z,3.22
2019-05-10T12:43:21.205Z,3.58
2019-05-10T12:45:51.775Z,3.58
2019-05-10T12:48:23.208Z,3.05
2019-05-10T12:50:54.476Z,3.55
2019-05-10T12:53:21.572Z,3.50
2019-05-10T12:55:50.340Z,4.45
2019-05-10T12:58:19.020Z,3.17
2019-05-10T13:00:52.534Z,3.27
2019-05-10T13:03:19.477Z,3.95
2019-05-10T13:05:53.174Z,3.90
2019-05-10T13:08:18.907Z,3.72
2019-05-10T13:10:49.913Z,3.62
2019-05-10T13:13:23.748Z,3.47
2019-05-10T13:15:48.329Z,3.95
2019-05-10T13:18:16.978Z,3.40
2019-05-10T13:20:45.819Z,3.02
2019-05-10T13:23:16.339Z,2.92
2019-05-10T13:25:44.964Z,3.10
2019-05-10T13:28:13.641Z,3.27
2019-05-10T13:30:42.412Z,3.77
2019-05-10T13:33:11.062Z,3.37
2019-05-10T13:35:39.719Z,3.52
2019-05-10T13:38:08.402Z,4.10
2019-05-10T13:40:39.013Z,3.58
2019-05-10T13:43:07.441Z,3.47
2019-05-10T13:45:37.866Z,3.10
2019-05-10T13:48:07.871Z,3.42
2019-05-10T13:50:36.538Z,2.98
2019-05-10T13:53:05.296Z,3.58
2019-05-10T13:55:34.009Z,3.10
2019-05-10T13:58:02.680Z,2.77
2019-05-10T14:00:34.208Z,2.90
2019-05-10T14:03:04.837Z,3.25
2019-05-10T14:05:32.291Z,3.22
2019-05-10T14:08:00.945Z,3.40
2019-05-10T14:10:29.715Z,3.40
2019-05-10T14:13:02.713Z,4.35
2019-05-10T14:15:28.750Z,3.45
2019-05-10T14:17:57.454Z,3.37
2019-05-10T14:20:27.730Z,3.12
2019-05-10T14:22:58.784Z,2.95
2019-05-10T14:25:29.500Z,3.17
2019-05-10T14:27:57.376Z,2.77
2019-05-10T14:30:26.099Z,3.47
2019-05-10T14:32:54.779Z,3.12
2019-05-10T14:35:24.563Z,2.42
2019-05-10T14:37:53.283Z,3.30
2019-05-10T14:40:27.844Z,3.22
2019-05-10T14:42:52.358Z,2.75
2019-05-10T14:45:21.403Z,3.58
2019-05-10T14:47:50.681Z,4.92
2019-05-10T14:50:25.564Z,2.85
2019-05-10T14:52:50.063Z,3.60
2019-05-10T14:55:18.712Z,3.35
2019-05-10T14:57:47.373Z,3.40
2019-05-10T15:00:17.404Z,3.92
2019-05-10T15:02:46.055Z,4.10
2019-05-10T15:05:16.354Z,4.03
2019-05-10T15:07:45.349Z,4.28
2019-05-10T15:10:14.252Z,3.33
2019-05-10T15:12:42.931Z,4.10
2019-05-10T15:15:11.943Z,3.72
2019-05-10T15:17:40.667Z,3.92
2019-05-10T15:20:09.596Z,3.90
2019-05-10T15:22:38.264Z,3.70
2019-05-10T15:25:07.175Z,4.95
2019-05-10T15:27:35.859Z,4.67
2019-05-10T15:30:08.019Z,3.90
2019-05-10T15:32:35.987Z,3.80
2019-05-10T15:35:07.912Z,3.77
2019-05-10T15:37:40.579Z,5.05
2019-05-10T15:40:07.963Z,4.97
2019-05-10T15:42:38.449Z,5.65
2019-05-10T15:45:12.045Z,5.50
2019-05-10T15:47:49.936Z,5.92
2019-05-10T15:50:09.133Z,6.10
2019-05-10T15:52:39.626Z,7.40
2019-05-10T15:55:08.413Z,6.58
2019-05-10T15:57:37.066Z,7.87
2019-05-10T16:00:06.452Z,5.08
2019-05-10T16:02:35.137Z,5.00
2019-05-10T16:05:22.230Z,4.45
2019-05-10T16:07:34.399Z,4.53
2019-05-10T16:10:03.111Z,4.55
2019-05-10T16:12:31.761Z,4.35
2019-05-10T16:15:00.445Z,5.25
2019-05-10T16:17:29.126Z,4.70
2019-05-10T16:20:00.234Z,4.35
2019-05-10T16:22:30.233Z,4.35
2019-05-10T16:25:01.047Z,5.10
2019-05-10T16:27:33.916Z,4.80
2019-05-10T16:29:59.421Z,4.97
2019-05-10T16:32:29.440Z,4.80
2019-05-10T16:34:58.469Z,4.80
2019-05-10T16:37:27.124Z,4.12
2019-05-10T16:39:55.823Z,4.58
2019-05-10T16:42:27.831Z,4.80
2019-05-10T16:44:54.832Z,4.62
2019-05-10T16:47:23.507Z,4.70
2019-05-10T16:49:53.316Z,5.40
2019-05-10T16:52:25.993Z,5.08
2019-05-10T16:54:58.121Z,5.47
2019-05-10T16:57:23.394Z,5.12
2019-05-10T16:59:52.079Z,5.55
2019-05-10T17:02:20.731Z,5.12
2019-05-10T17:04:49.380Z,4.90
2019-05-10T17:07:18.958Z,5.10
2019-05-10T17:09:49.553Z,4.58
2019-05-10T17:12:21.948Z,4.30
2019-05-10T17:14:50.613Z,4.40
2019-05-10T17:17:19.717Z,4.60
2019-05-10T17:19:48.446Z,4.97
2019-05-10T17:22:17.117Z,4.45
2019-05-10T17:24:45.794Z,4.47
2019-05-10T17:27:14.544Z,4.62
2019-05-10T17:29:44.530Z,4.42
2019-05-10T17:32:13.648Z,5.03
2019-05-10T17:34:42.305Z,5.28
2019-05-10T17:37:10.979Z,5.58
2019-05-10T17:39:39.623Z,6.17
2019-05-10T17:42:08.384Z,5.95
2019-05-10T17:44:37.051Z,6.42
2019-05-10T17:47:05.728Z,5.15
2019-05-10T17:49:34.403Z,5.72
2019-05-10T17:52:03.099Z,6.22
2019-05-10T17:54:33.863Z,6.33
2019-05-10T17:57:02.157Z,6.33
2019-05-10T17:59:30.827Z,8.05
2019-05-10T18:01:59.558Z,5.78
2019-05-10T18:04:28.238Z,5.55
2019-05-10T18:06:56.891Z,4.90
2019-05-10T18:09:25.544Z,5.42
2019-05-10T18:11:54.229Z,5.15
2019-05-10T18:14:22.880Z,5.15
2019-05-10T18:16:51.532Z,5.70
2019-05-10T18:19:24.814Z,7.12
2019-05-10T18:21:54.962Z,6.60
2019-05-10T18:24:20.977Z,7.70
2019-05-10T18:26:49.665Z,7.55
2019-05-10T18:29:18.385Z,8.08
2019-05-10T18:31:54.822Z,7.78
2019-05-10T18:34:17.415Z,7.78
2019-05-10T18:36:51.563Z,8.00
2019-05-10T18:39:17.764Z,8.03
2019-05-10T18:41:48.015Z,7.67
2019-05-10T18:44:16.765Z,8.80
2019-05-10T18:46:45.417Z,8.38
2019-05-10T18:49:14.077Z,8.40
2019-05-10T18:51:42.768Z,8.63
2019-05-10T18:54:11.519Z,8.95
2019-05-10T18:56:40.173Z,9.08
2019-05-10T18:59:09.432Z,9.25
2019-05-10T19:01:40.299Z,8.95
2019-05-10T19:04:14.222Z,9.38
2019-05-10T19:06:44.173Z,7.87
2019-05-10T19:09:09.542Z,7.78
2019-05-10T19:11:38.949Z,9.25
2019-05-10T19:14:08.635Z,9.43
2019-05-10T19:16:37.312Z,9.18
2019-05-10T19:19:05.991Z,8.85
2019-05-10T19:21:37.710Z,9.93
2019-05-10T19:24:05.047Z,9.85
2019-05-10T19:26:33.700Z,9.35
2019-05-10T19:29:05.438Z,9.08
2019-05-10T19:31:37.950Z,8.90
2019-05-10T19:34:03.221Z,8.88
2019-05-10T19:36:31.903Z,8.60
2019-05-10T19:39:00.562Z,7.72
2019-05-10T19:41:29.221Z,8.48
2019-05-10T19:44:02.528Z,10.58
2019-05-10T19:46:30.095Z,11.45
2019-05-10T19:48:58.759Z,12.45
2019-05-10T19:51:27.418Z,13.40
2019-05-10T19:53:56.124Z,13.60
2019-05-10T19:56:30.102Z,13.75
2019-05-10T19:58:55.252Z,13.85
2019-05-10T20:01:23.912Z,14.65
2019-05-10T20:03:52.594Z,14.47
2019-05-10T20:06:21.276Z,10.70
2019-05-10T20:08:49.941Z,10.10
2019-05-10T20:11:18.621Z,10.40
2019-05-10T20:13:47.321Z,9.98
2019-05-10T20:16:15.982Z,9.70
2019-05-10T20:18:44.638Z,10.55
2019-05-10T20:21:13.385Z,10.65
2019-05-10T20:23:41.988Z,8.58
2019-05-10T20:26:10.645Z,10.58
2019-05-10T20:28:39.325Z,9.25
2019-05-10T20:31:08.060Z,8.80
2019-05-10T20:33:36.709Z,12.00
2019-05-10T20:36:05.407Z,15.50
2019-05-10T20:38:34.068Z,16.73
2019-05-10T20:41:02.728Z,18.30
2019-05-10T20:43:31.516Z,17.65
2019-05-10T20:46:00.176Z,18.37
2019-05-10T20:48:28.846Z,17.60
2019-05-10T20:50:57.577Z,16.37
2019-05-10T20:53:26.317Z,15.10
2019-05-10T20:55:54.974Z,18.60
2019-05-10T20:58:23.648Z,17.73
2019-05-10T21:00:52.315Z,17.77
2019-05-10T21:03:20.999Z,16.45
2019-05-10T21:05:49.975Z,18.32
2019-05-10T21:08:18.657Z,17.23
2019-05-10T21:10:47.312Z,16.70
2019-05-10T21:13:16.076Z,20.30
2019-05-10T21:15:44.778Z,21.62
2019-05-10T21:18:13.467Z,21.30
2019-05-10T21:20:42.128Z,22.10
2019-05-10T21:23:10.833Z,21.40
2019-05-10T21:25:39.497Z,20.50
2019-05-10T21:28:08.173Z,23.38
2019-05-10T21:30:36.869Z,21.82
2019-05-10T21:33:05.550Z,22.37
2019-05-10T21:35:34.215Z,22.58
2019-05-10T21:38:02.903Z,23.32
2019-05-10T21:40:31.561Z,23.45
2019-05-10T21:43:00.265Z,26.05
2019-05-10T21:45:28.930Z,24.77
2019-05-10T21:47:57.586Z,25.60
2019-05-10T21:50:26.270Z,20.52
2019-05-10T21:52:54.956Z,19.90
2019-05-10T21:55:23.613Z,20.65
2019-05-10T21:57:52.379Z,22.42
2019-05-10T22:00:23.925Z,21.82
2019-05-10T22:02:52.683Z,22.87
2019-05-10T22:05:21.379Z,23.25
2019-05-10T22:07:50.138Z,24.75
2019-05-10T22:10:18.877Z,23.62
2019-05-10T22:12:47.552Z,25.80
2019-05-10T22:15:16.246Z,26.75
2019-05-10T22:17:44.935Z,26.33
2019-05-10T22:20:13.745Z,26.73
2019-05-10T22:22:42.407Z,22.75
2019-05-10T22:25:11.165Z,22.07
2019-05-10T22:27:39.862Z,23.70
2019-05-10T22:30:12.152Z,22.17
2019-05-10T22:32:40.119Z,21.68
2019-05-10T22:35:08.950Z,22.55
2019-05-10T22:37:37.603Z,21.10
2019-05-10T22:40:06.679Z,20.27
2019-05-10T22:42:35.362Z,20.55
2019-05-10T22:45:04.174Z,19.10
2019-05-10T22:47:32.828Z,20.90
2019-05-10T22:50:01.493Z,20.45
2019-05-10T22:52:30.180Z,21.20
2019-05-10T22:55:00.606Z,22.25
2019-05-10T22:57:29.217Z,21.12
2019-05-10T22:59:57.902Z,23.67
2019-05-10T23:02:26.646Z,23.47
2019-05-10T23:04:55.263Z,24.25
2019-05-10T23:07:23.919Z,24.70
2019-05-10T23:09:52.606Z,25.60
2019-05-10T23:12:21.264Z,26.05
2019-05-10T23:14:50.002Z,27.37
2019-05-10T23:17:18.678Z,26.15
2019-05-10T23:19:47.337Z,29.57
2019-05-10T23:22:16.018Z,28.80
2019-05-10T23:24:44.758Z,29.25
2019-05-10T23:27:13.465Z,31.80
2019-05-10T23:29:42.148Z,27.27
2019-05-10T23:32:10.838Z,25.62
2019-05-10T23:34:39.546Z,27.17
2019-05-10T23:37:08.200Z,25.88
2019-05-10T23:39:40.918Z,27.13
2019-05-10T23:42:07.266Z,28.75
2019-05-10T23:44:35.974Z,27.55
2019-05-10T23:47:04.637Z,29.50
2019-05-10T23:49:33.408Z,28.62
2019-05-10T23:52:02.242Z,29.70
2019-05-10T23:54:30.930Z,28.62
2019-05-10T23:56:59.653Z,27.45
2019-05-10T23:59:28.308Z,30.92
